sensor_id;sensor_type;location;lat;lon;timestamp;P1;durP1;ratioP1;P2;durP2;ratioP2
47922;SDS011;33688;44.354;9.228;2024-02-23T00:01:04;6.82;;;3.15;;
47922;SDS011;33688;44.354;9.228;2024-02-23T00:03:31;6.70;;;3.05;;
47922;SDS011;33688;44.354;9.228;2024-02-23T00:06:00;8.02;;;3.20;;
47922;SDS011;33688;44.354;9.228;2024-02-23T00:11:12;4.45;;;2.22;;
47922;SDS011;33688;44.354;9.228;2024-02-23T00:13:38;7.25;;;2.70;;
47922;SDS011;33688;44.354;9.228;2024-02-23T00:16:04;8.05;;;3.42;;
47922;SDS011;33688;44.354;9.228;2024-02-23T00:18:30;7.22;;;2.97;;
47922;SDS011;33688;44.354;9.228;2024-02-23T00:20:56;5.30;;;2.40;;
47922;SDS011;33688;44.354;9.228;2024-02-23T00:23:22;7.70;;;2.80;;
47922;SDS011;33688;44.354;9.228;2024-02-23T00:25:47;5.25;;;2.47;;
47922;SDS011;33688;44.354;9.228;2024-02-23T00:28:13;9.32;;;3.28;;
47922;SDS011;33688;44.354;9.228;2024-02-23T00:30:39;10.38;;;3.45;;
47922;SDS011;33688;44.354;9.228;2024-02-23T00:33:04;5.50;;;2.85;;
47922;SDS011;33688;44.354;9.228;2024-02-23T00:35:30;7.70;;;3.00;;
47922;SDS011;33688;44.354;9.228;2024-02-23T00:37:56;8.70;;;2.85;;
47922;SDS011;33688;44.354;9.228;2024-02-23T00:40:22;7.47;;;2.50;;
47922;SDS011;33688;44.354;9.228;2024-02-23T00:42:50;11.23;;;3.85;;
47922;SDS011;33688;44.354;9.228;2024-02-23T00:45:16;7.00;;;2.92;;
47922;SDS011;33688;44.354;9.228;2024-02-23T00:50:27;7.30;;;3.20;;
47922;SDS011;33688;44.354;9.228;2024-02-23T00:52:53;11.55;;;3.25;;
47922;SDS011;33688;44.354;9.228;2024-02-23T00:55:19;8.85;;;3.28;;
47922;SDS011;33688;44.354;9.228;2024-02-23T00:57:45;11.02;;;3.75;;
47922;SDS011;33688;44.354;9.228;2024-02-23T01:00:11;7.47;;;2.88;;
47922;SDS011;33688;44.354;9.228;2024-02-23T01:02:38;7.75;;;3.25;;
47922;SDS011;33688;44.354;9.228;2024-02-23T01:05:04;7.72;;;2.85;;
47922;SDS011;33688;44.354;9.228;2024-02-23T01:07:31;6.88;;;3.17;;
47922;SDS011;33688;44.354;9.228;2024-02-23T01:09:57;10.02;;;3.50;;
47922;SDS011;33688;44.354;9.228;2024-02-23T01:12:24;7.85;;;3.75;;
47922;SDS011;33688;44.354;9.228;2024-02-23T01:14:50;11.43;;;3.47;;
47922;SDS011;33688;44.354;9.228;2024-02-23T01:17:16;5.85;;;2.53;;
47922;SDS011;33688;44.354;9.228;2024-02-23T01:19:43;7.30;;;2.55;;
47922;SDS011;33688;44.354;9.228;2024-02-23T01:22:09;7.43;;;2.95;;
47922;SDS011;33688;44.354;9.228;2024-02-23T01:24:35;7.15;;;2.80;;
47922;SDS011;33688;44.354;9.228;2024-02-23T01:27:01;4.25;;;2.25;;
47922;SDS011;33688;44.354;9.228;2024-02-23T01:29:27;5.68;;;2.67;;
47922;SDS011;33688;44.354;9.228;2024-02-23T01:31:53;6.20;;;2.80;;
47922;SDS011;33688;44.354;9.228;2024-02-23T01:34:22;5.55;;;2.90;;
47922;SDS011;33688;44.354;9.228;2024-02-23T01:36:47;7.55;;;3.17;;
47922;SDS011;33688;44.354;9.228;2024-02-23T01:39:14;7.60;;;2.85;;
47922;SDS011;33688;44.354;9.228;2024-02-23T01:41:39;5.28;;;2.53;;
47922;SDS011;33688;44.354;9.228;2024-02-23T01:44:06;9.63;;;3.00;;
47922;SDS011;33688;44.354;9.228;2024-02-23T01:46:32;9.88;;;3.10;;
47922;SDS011;33688;44.354;9.228;2024-02-23T01:48:58;6.93;;;2.58;;
47922;SDS011;33688;44.354;9.228;2024-02-23T01:51:24;6.30;;;2.42;;
47922;SDS011;33688;44.354;9.228;2024-02-23T01:53:51;8.27;;;3.53;;
47922;SDS011;33688;44.354;9.228;2024-02-23T01:56:17;9.02;;;2.95;;
47922;SDS011;33688;44.354;9.228;2024-02-23T01:58:45;6.03;;;2.72;;
47922;SDS011;33688;44.354;9.228;2024-02-23T02:01:12;7.57;;;2.95;;
47922;SDS011;33688;44.354;9.228;2024-02-23T02:03:40;9.23;;;3.40;;
47922;SDS011;33688;44.354;9.228;2024-02-23T02:06:07;7.82;;;2.55;;
47922;SDS011;33688;44.354;9.228;2024-02-23T02:11:05;14.63;;;4.22;;
47922;SDS011;33688;44.354;9.228;2024-02-23T02:13:32;9.27;;;2.95;;
47922;SDS011;33688;44.354;9.228;2024-02-23T02:16:01;9.60;;;3.70;;
47922;SDS011;33688;44.354;9.228;2024-02-23T02:18:30;13.40;;;3.83;;
47922;SDS011;33688;44.354;9.228;2024-02-23T02:20:56;15.05;;;4.22;;
47922;SDS011;33688;44.354;9.228;2024-02-23T02:23:23;10.98;;;3.40;;
47922;SDS011;33688;44.354;9.228;2024-02-23T02:25:57;13.40;;;4.03;;
47922;SDS011;33688;44.354;9.228;2024-02-23T02:28:24;8.40;;;3.13;;
47922;SDS011;33688;44.354;9.228;2024-02-23T02:30:51;14.43;;;4.05;;
47922;SDS011;33688;44.354;9.228;2024-02-23T02:33:18;11.10;;;4.03;;
47922;SDS011;33688;44.354;9.228;2024-02-23T02:35:44;10.07;;;3.13;;
47922;SDS011;33688;44.354;9.228;2024-02-23T02:40:58;10.88;;;2.95;;
47922;SDS011;33688;44.354;9.228;2024-02-23T02:43:27;13.00;;;3.88;;
47922;SDS011;33688;44.354;9.228;2024-02-23T02:45:53;8.75;;;3.67;;
47922;SDS011;33688;44.354;9.228;2024-02-23T02:48:18;8.38;;;3.10;;
47922;SDS011;33688;44.354;9.228;2024-02-23T02:50:44;10.50;;;4.10;;
47922;SDS011;33688;44.354;9.228;2024-02-23T02:53:16;10.10;;;3.45;;
47922;SDS011;33688;44.354;9.228;2024-02-23T02:55:43;10.05;;;4.38;;
47922;SDS011;33688;44.354;9.228;2024-02-23T02:58:09;10.50;;;3.83;;
47922;SDS011;33688;44.354;9.228;2024-02-23T03:00:38;12.20;;;3.50;;
47922;SDS011;33688;44.354;9.228;2024-02-23T03:08:22;13.60;;;4.28;;
47922;SDS011;33688;44.354;9.228;2024-02-23T03:10:48;13.80;;;4.72;;
47922;SDS011;33688;44.354;9.228;2024-02-23T03:13:14;14.73;;;4.07;;
47922;SDS011;33688;44.354;9.228;2024-02-23T03:15:40;15.10;;;4.47;;
47922;SDS011;33688;44.354;9.228;2024-02-23T03:18:05;9.45;;;3.33;;
47922;SDS011;33688;44.354;9.228;2024-02-23T03:20:34;17.10;;;4.45;;
47922;SDS011;33688;44.354;9.228;2024-02-23T03:23:00;14.23;;;4.60;;
47922;SDS011;33688;44.354;9.228;2024-02-23T03:25:29;15.90;;;5.63;;
47922;SDS011;33688;44.354;9.228;2024-02-23T03:27:55;18.38;;;4.78;;
47922;SDS011;33688;44.354;9.228;2024-02-23T03:30:20;14.07;;;4.63;;
47922;SDS011;33688;44.354;9.228;2024-02-23T03:32:47;16.20;;;4.68;;
47922;SDS011;33688;44.354;9.228;2024-02-23T03:35:12;17.85;;;4.03;;
47922;SDS011;33688;44.354;9.228;2024-02-23T03:37:38;13.88;;;4.68;;
47922;SDS011;33688;44.354;9.228;2024-02-23T03:40:05;15.75;;;4.80;;
47922;SDS011;33688;44.354;9.228;2024-02-23T03:42:31;20.30;;;5.60;;
47922;SDS011;33688;44.354;9.228;2024-02-23T03:44:57;13.48;;;4.40;;
47922;SDS011;33688;44.354;9.228;2024-02-23T03:47:24;22.90;;;6.10;;
47922;SDS011;33688;44.354;9.228;2024-02-23T03:49:49;16.83;;;5.05;;
47922;SDS011;33688;44.354;9.228;2024-02-23T03:55:00;22.50;;;6.60;;
47922;SDS011;33688;44.354;9.228;2024-02-23T03:57:26;18.90;;;5.15;;
47922;SDS011;33688;44.354;9.228;2024-02-23T03:59:55;13.23;;;4.38;;
47922;SDS011;33688;44.354;9.228;2024-02-23T04:02:22;19.23;;;4.82;;
47922;SDS011;33688;44.354;9.228;2024-02-23T04:04:49;13.00;;;5.28;;
47922;SDS011;33688;44.354;9.228;2024-02-23T04:07:15;15.68;;;4.32;;
47922;SDS011;33688;44.354;9.228;2024-02-23T04:09:41;17.45;;;4.82;;
47922;SDS011;33688;44.354;9.228;2024-02-23T04:12:07;17.90;;;4.88;;
47922;SDS011;33688;44.354;9.228;2024-02-23T04:14:35;14.25;;;4.22;;
47922;SDS011;33688;44.354;9.228;2024-02-23T04:17:04;12.15;;;4.07;;
47922;SDS011;33688;44.354;9.228;2024-02-23T04:19:32;16.17;;;4.53;;
47922;SDS011;33688;44.354;9.228;2024-02-23T04:21:58;17.00;;;4.93;;
47922;SDS011;33688;44.354;9.228;2024-02-23T04:24:24;16.20;;;5.57;;
47922;SDS011;33688;44.354;9.228;2024-02-23T04:26:49;16.35;;;5.40;;
47922;SDS011;33688;44.354;9.228;2024-02-23T04:32:01;19.17;;;4.53;;
47922;SDS011;33688;44.354;9.228;2024-02-23T04:34:28;17.45;;;5.13;;
47922;SDS011;33688;44.354;9.228;2024-02-23T04:36:54;17.30;;;4.93;;
47922;SDS011;33688;44.354;9.228;2024-02-23T04:39:21;19.08;;;4.80;;
47922;SDS011;33688;44.354;9.228;2024-02-23T04:41:48;16.88;;;4.13;;
47922;SDS011;33688;44.354;9.228;2024-02-23T04:44:16;15.85;;;4.50;;
47922;SDS011;33688;44.354;9.228;2024-02-23T04:46:42;21.33;;;6.25;;
47922;SDS011;33688;44.354;9.228;2024-02-23T04:49:08;7.57;;;3.30;;
47922;SDS011;33688;44.354;9.228;2024-02-23T04:51:34;16.88;;;4.93;;
47922;SDS011;33688;44.354;9.228;2024-02-23T04:53:59;21.33;;;5.50;;
47922;SDS011;33688;44.354;9.228;2024-02-23T04:56:25;16.80;;;5.20;;
47922;SDS011;33688;44.354;9.228;2024-02-23T04:58:52;16.45;;;5.43;;
47922;SDS011;33688;44.354;9.228;2024-02-23T05:01:18;17.80;;;6.20;;
47922;SDS011;33688;44.354;9.228;2024-02-23T05:06:37;24.10;;;6.32;;
47922;SDS011;33688;44.354;9.228;2024-02-23T05:09:03;26.80;;;8.82;;
47922;SDS011;33688;44.354;9.228;2024-02-23T05:11:29;20.30;;;6.10;;
47922;SDS011;33688;44.354;9.228;2024-02-23T05:16:39;26.15;;;6.47;;
47922;SDS011;33688;44.354;9.228;2024-02-23T05:19:05;18.38;;;5.68;;
47922;SDS011;33688;44.354;9.228;2024-02-23T05:21:31;21.17;;;6.28;;
47922;SDS011;33688;44.354;9.228;2024-02-23T05:23:57;19.33;;;6.28;;
47922;SDS011;33688;44.354;9.228;2024-02-23T05:26:23;24.75;;;6.25;;
47922;SDS011;33688;44.354;9.228;2024-02-23T05:28:49;26.77;;;6.75;;
47922;SDS011;33688;44.354;9.228;2024-02-23T05:31:15;23.83;;;6.80;;
47922;SDS011;33688;44.354;9.228;2024-02-23T05:33:42;20.20;;;5.60;;
47922;SDS011;33688;44.354;9.228;2024-02-23T05:36:08;21.67;;;5.85;;
47922;SDS011;33688;44.354;9.228;2024-02-23T05:38:34;22.25;;;6.22;;
47922;SDS011;33688;44.354;9.228;2024-02-23T05:40:59;19.45;;;5.47;;
47922;SDS011;33688;44.354;9.228;2024-02-23T05:43:27;18.17;;;5.75;;
47922;SDS011;33688;44.354;9.228;2024-02-23T05:45:54;22.60;;;6.68;;
47922;SDS011;33688;44.354;9.228;2024-02-23T05:48:22;20.08;;;5.95;;
47922;SDS011;33688;44.354;9.228;2024-02-23T05:50:48;18.85;;;5.82;;
47922;SDS011;33688;44.354;9.228;2024-02-23T05:53:16;22.55;;;7.28;;
47922;SDS011;33688;44.354;9.228;2024-02-23T05:55:42;23.02;;;6.45;;
47922;SDS011;33688;44.354;9.228;2024-02-23T05:58:10;18.42;;;5.50;;
47922;SDS011;33688;44.354;9.228;2024-02-23T06:00:36;20.42;;;6.00;;
47922;SDS011;33688;44.354;9.228;2024-02-23T06:03:03;21.63;;;5.53;;
47922;SDS011;33688;44.354;9.228;2024-02-23T06:05:30;22.15;;;5.50;;
47922;SDS011;33688;44.354;9.228;2024-02-23T06:07:55;21.17;;;5.55;;
47922;SDS011;33688;44.354;9.228;2024-02-23T06:10:21;22.88;;;5.63;;
47922;SDS011;33688;44.354;9.228;2024-02-23T06:12:47;18.50;;;5.80;;
47922;SDS011;33688;44.354;9.228;2024-02-23T06:15:12;15.63;;;5.03;;
47922;SDS011;33688;44.354;9.228;2024-02-23T06:17:38;13.85;;;5.10;;
47922;SDS011;33688;44.354;9.228;2024-02-23T06:20:05;11.07;;;4.57;;
47922;SDS011;33688;44.354;9.228;2024-02-23T06:22:33;13.30;;;4.65;;
47922;SDS011;33688;44.354;9.228;2024-02-23T06:24:59;16.52;;;4.88;;
47922;SDS011;33688;44.354;9.228;2024-02-23T06:27:26;13.18;;;4.07;;
47922;SDS011;33688;44.354;9.228;2024-02-23T06:29:52;9.10;;;4.03;;
47922;SDS011;33688;44.354;9.228;2024-02-23T06:32:18;17.50;;;5.03;;
47922;SDS011;33688;44.354;9.228;2024-02-23T06:34:44;18.00;;;5.07;;
47922;SDS011;33688;44.354;9.228;2024-02-23T06:37:11;11.27;;;4.05;;
47922;SDS011;33688;44.354;9.228;2024-02-23T06:39:39;10.00;;;3.60;;
47922;SDS011;33688;44.354;9.228;2024-02-23T06:42:05;10.48;;;3.90;;
47922;SDS011;33688;44.354;9.228;2024-02-23T06:44:31;7.60;;;3.50;;
47922;SDS011;33688;44.354;9.228;2024-02-23T06:46:58;10.48;;;4.28;;
47922;SDS011;33688;44.354;9.228;2024-02-23T06:49:24;9.10;;;3.83;;
47922;SDS011;33688;44.354;9.228;2024-02-23T06:51:50;10.70;;;3.92;;
47922;SDS011;33688;44.354;9.228;2024-02-23T06:54:18;9.10;;;3.58;;
47922;SDS011;33688;44.354;9.228;2024-02-23T06:56:44;11.93;;;3.83;;
47922;SDS011;33688;44.354;9.228;2024-02-23T06:59:11;8.57;;;3.00;;
47922;SDS011;33688;44.354;9.228;2024-02-23T07:02:00;10.63;;;4.07;;
47922;SDS011;33688;44.354;9.228;2024-02-23T07:04:24;11.57;;;3.50;;
47922;SDS011;33688;44.354;9.228;2024-02-23T07:06:50;8.48;;;3.00;;
47922;SDS011;33688;44.354;9.228;2024-02-23T07:09:17;6.63;;;2.88;;
47922;SDS011;33688;44.354;9.228;2024-02-23T07:14:27;8.48;;;3.30;;
47922;SDS011;33688;44.354;9.228;2024-02-23T07:16:55;7.07;;;3.08;;
47922;SDS011;33688;44.354;9.228;2024-02-23T07:19:20;10.52;;;3.42;;
47922;SDS011;33688;44.354;9.228;2024-02-23T07:21:46;6.95;;;3.28;;
47922;SDS011;33688;44.354;9.228;2024-02-23T07:24:13;9.00;;;3.28;;
47922;SDS011;33688;44.354;9.228;2024-02-23T07:26:39;9.25;;;3.65;;
47922;SDS011;33688;44.354;9.228;2024-02-23T07:29:07;7.20;;;3.13;;
47922;SDS011;33688;44.354;9.228;2024-02-23T07:31:34;7.97;;;3.33;;
47922;SDS011;33688;44.354;9.228;2024-02-23T07:34:00;12.02;;;2.85;;
47922;SDS011;33688;44.354;9.228;2024-02-23T07:36:28;9.43;;;3.10;;
47922;SDS011;33688;44.354;9.228;2024-02-23T07:38:55;9.30;;;3.15;;
47922;SDS011;33688;44.354;9.228;2024-02-23T07:41:21;6.07;;;2.75;;
47922;SDS011;33688;44.354;9.228;2024-02-23T07:43:48;6.35;;;2.95;;
47922;SDS011;33688;44.354;9.228;2024-02-23T07:46:15;7.32;;;3.28;;
47922;SDS011;33688;44.354;9.228;2024-02-23T07:48:43;8.48;;;3.00;;
47922;SDS011;33688;44.354;9.228;2024-02-23T07:51:09;9.73;;;3.53;;
47922;SDS011;33688;44.354;9.228;2024-02-23T07:53:36;7.38;;;3.05;;
47922;SDS011;33688;44.354;9.228;2024-02-23T07:56:02;5.85;;;3.20;;
47922;SDS011;33688;44.354;9.228;2024-02-23T07:58:30;8.27;;;3.22;;
47922;SDS011;33688;44.354;9.228;2024-02-23T08:00:56;5.15;;;2.72;;
47922;SDS011;33688;44.354;9.228;2024-02-23T08:03:22;6.85;;;3.30;;
47922;SDS011;33688;44.354;9.228;2024-02-23T08:05:48;4.88;;;3.05;;
47922;SDS011;33688;44.354;9.228;2024-02-23T08:08:14;5.03;;;3.03;;
47922;SDS011;33688;44.354;9.228;2024-02-23T08:10:43;6.00;;;3.53;;
47922;SDS011;33688;44.354;9.228;2024-02-23T08:13:09;8.75;;;3.78;;
47922;SDS011;33688;44.354;9.228;2024-02-23T08:15:36;5.40;;;3.03;;
47922;SDS011;33688;44.354;9.228;2024-02-23T08:18:03;7.53;;;3.35;;
47922;SDS011;33688;44.354;9.228;2024-02-23T08:20:29;8.48;;;3.65;;
47922;SDS011;33688;44.354;9.228;2024-02-23T08:22:56;6.03;;;3.05;;
47922;SDS011;33688;44.354;9.228;2024-02-23T08:25:24;5.43;;;3.15;;
47922;SDS011;33688;44.354;9.228;2024-02-23T08:27:49;6.63;;;3.25;;
47922;SDS011;33688;44.354;9.228;2024-02-23T08:30:17;5.63;;;3.05;;
47922;SDS011;33688;44.354;9.228;2024-02-23T08:32:45;6.70;;;3.30;;
47922;SDS011;33688;44.354;9.228;2024-02-23T08:35:11;10.65;;;3.88;;
47922;SDS011;33688;44.354;9.228;2024-02-23T08:37:37;6.13;;;3.05;;
47922;SDS011;33688;44.354;9.228;2024-02-23T08:40:05;9.38;;;2.97;;
47922;SDS011;33688;44.354;9.228;2024-02-23T08:42:32;5.57;;;3.03;;
47922;SDS011;33688;44.354;9.228;2024-02-23T08:44:59;5.93;;;2.22;;
47922;SDS011;33688;44.354;9.228;2024-02-23T08:47:25;6.78;;;3.40;;
47922;SDS011;33688;44.354;9.228;2024-02-23T08:49:57;5.63;;;2.63;;
47922;SDS011;33688;44.354;9.228;2024-02-23T08:52:23;5.82;;;2.60;;
47922;SDS011;33688;44.354;9.228;2024-02-23T08:54:49;5.72;;;2.83;;
47922;SDS011;33688;44.354;9.228;2024-02-23T08:57:16;5.22;;;2.88;;
47922;SDS011;33688;44.354;9.228;2024-02-23T08:59:45;4.93;;;2.85;;
47922;SDS011;33688;44.354;9.228;2024-02-23T09:02:12;6.13;;;3.05;;
47922;SDS011;33688;44.354;9.228;2024-02-23T09:04:37;6.97;;;2.58;;
47922;SDS011;33688;44.354;9.228;2024-02-23T09:07:03;7.82;;;2.92;;
47922;SDS011;33688;44.354;9.228;2024-02-23T09:09:30;7.40;;;3.97;;
47922;SDS011;33688;44.354;9.228;2024-02-23T09:11:56;4.93;;;2.70;;
47922;SDS011;33688;44.354;9.228;2024-02-23T09:14:21;11.18;;;3.05;;
47922;SDS011;33688;44.354;9.228;2024-02-23T09:16:47;4.65;;;2.35;;
47922;SDS011;33688;44.354;9.228;2024-02-23T09:19:16;7.25;;;3.13;;
47922;SDS011;33688;44.354;9.228;2024-02-23T09:21:42;6.20;;;2.47;;
47922;SDS011;33688;44.354;9.228;2024-02-23T09:24:10;5.32;;;3.08;;
47922;SDS011;33688;44.354;9.228;2024-02-23T09:26:36;5.43;;;2.55;;
47922;SDS011;33688;44.354;9.228;2024-02-23T09:29:02;5.28;;;2.30;;
47922;SDS011;33688;44.354;9.228;2024-02-23T09:31:28;5.38;;;2.92;;
47922;SDS011;33688;44.354;9.228;2024-02-23T09:33:55;10.70;;;2.60;;
47922;SDS011;33688;44.354;9.228;2024-02-23T09:36:21;4.60;;;2.40;;
47922;SDS011;33688;44.354;9.228;2024-02-23T09:38:47;5.18;;;2.58;;
47922;SDS011;33688;44.354;9.228;2024-02-23T09:41:20;7.00;;;2.40;;
47922;SDS011;33688;44.354;9.228;2024-02-23T09:43:48;5.57;;;2.70;;
47922;SDS011;33688;44.354;9.228;2024-02-23T09:46:15;5.85;;;2.35;;
47922;SDS011;33688;44.354;9.228;2024-02-23T09:51:14;6.45;;;2.72;;
47922;SDS011;33688;44.354;9.228;2024-02-23T09:53:42;6.72;;;3.13;;
47922;SDS011;33688;44.354;9.228;2024-02-23T09:56:09;4.00;;;2.13;;
47922;SDS011;33688;44.354;9.228;2024-02-23T10:01:06;4.60;;;2.25;;
47922;SDS011;33688;44.354;9.228;2024-02-23T10:03:37;4.65;;;2.55;;
47922;SDS011;33688;44.354;9.228;2024-02-23T10:06:04;3.95;;;2.35;;
47922;SDS011;33688;44.354;9.228;2024-02-23T10:08:30;6.30;;;2.75;;
47922;SDS011;33688;44.354;9.228;2024-02-23T10:10:56;7.10;;;2.40;;
47922;SDS011;33688;44.354;9.228;2024-02-23T10:13:22;5.07;;;2.50;;
47922;SDS011;33688;44.354;9.228;2024-02-23T10:15:52;3.50;;;2.05;;
47922;SDS011;33688;44.354;9.228;2024-02-23T10:18:18;7.40;;;2.58;;
47922;SDS011;33688;44.354;9.228;2024-02-23T10:20:45;4.93;;;2.28;;
47922;SDS011;33688;44.354;9.228;2024-02-23T10:23:13;4.35;;;2.58;;
47922;SDS011;33688;44.354;9.228;2024-02-23T10:25:39;8.20;;;1.95;;
47922;SDS011;33688;44.354;9.228;2024-02-23T10:28:05;6.50;;;1.80;;
47922;SDS011;33688;44.354;9.228;2024-02-23T10:30:32;4.93;;;2.03;;
47922;SDS011;33688;44.354;9.228;2024-02-23T10:32:58;4.00;;;1.98;;
47922;SDS011;33688;44.354;9.228;2024-02-23T10:35:25;6.30;;;2.38;;
47922;SDS011;33688;44.354;9.228;2024-02-23T10:37:52;4.97;;;2.40;;
47922;SDS011;33688;44.354;9.228;2024-02-23T10:40:20;3.35;;;2.05;;
47922;SDS011;33688;44.354;9.228;2024-02-23T10:42:50;3.67;;;2.03;;
47922;SDS011;33688;44.354;9.228;2024-02-23T10:45:21;5.40;;;1.95;;
47922;SDS011;33688;44.354;9.228;2024-02-23T10:47:48;6.90;;;2.20;;
47922;SDS011;33688;44.354;9.228;2024-02-23T10:50:15;3.80;;;2.00;;
47922;SDS011;33688;44.354;9.228;2024-02-23T10:52:43;4.57;;;2.50;;
47922;SDS011;33688;44.354;9.228;2024-02-23T10:55:09;3.55;;;2.35;;
47922;SDS011;33688;44.354;9.228;2024-02-23T10:57:37;3.28;;;1.85;;
47922;SDS011;33688;44.354;9.228;2024-02-23T11:00:04;3.15;;;1.67;;
47922;SDS011;33688;44.354;9.228;2024-02-23T11:02:43;5.38;;;2.05;;
47922;SDS011;33688;44.354;9.228;2024-02-23T11:05:12;3.95;;;2.20;;
47922;SDS011;33688;44.354;9.228;2024-02-23T11:07:41;3.90;;;1.98;;
47922;SDS011;33688;44.354;9.228;2024-02-23T11:10:06;4.50;;;2.33;;
47922;SDS011;33688;44.354;9.228;2024-02-23T11:12:34;3.72;;;2.47;;
47922;SDS011;33688;44.354;9.228;2024-02-23T11:15:01;5.07;;;2.40;;
47922;SDS011;33688;44.354;9.228;2024-02-23T11:17:31;7.50;;;2.83;;
47922;SDS011;33688;44.354;9.228;2024-02-23T11:19:58;3.97;;;2.30;;
47922;SDS011;33688;44.354;9.228;2024-02-23T11:22:32;5.53;;;2.97;;
47922;SDS011;33688;44.354;9.228;2024-02-23T11:25:04;4.72;;;2.80;;
47922;SDS011;33688;44.354;9.228;2024-02-23T11:27:33;4.47;;;2.20;;
47922;SDS011;33688;44.354;9.228;2024-02-23T11:30:08;8.05;;;2.80;;
47922;SDS011;33688;44.354;9.228;2024-02-23T11:32:40;4.95;;;2.75;;
47922;SDS011;33688;44.354;9.228;2024-02-23T11:35:09;3.85;;;2.40;;
47922;SDS011;33688;44.354;9.228;2024-02-23T11:37:53;6.60;;;2.78;;
47922;SDS011;33688;44.354;9.228;2024-02-23T11:40:28;6.28;;;2.60;;
47922;SDS011;33688;44.354;9.228;2024-02-23T11:42:58;3.97;;;2.15;;
47922;SDS011;33688;44.354;9.228;2024-02-23T11:45:30;7.47;;;2.67;;
47922;SDS011;33688;44.354;9.228;2024-02-23T11:47:56;4.18;;;2.28;;
47922;SDS011;33688;44.354;9.228;2024-02-23T11:50:22;3.55;;;2.38;;
47922;SDS011;33688;44.354;9.228;2024-02-23T11:52:49;3.85;;;2.38;;
47922;SDS011;33688;44.354;9.228;2024-02-23T11:55:19;5.93;;;2.15;;
47922;SDS011;33688;44.354;9.228;2024-02-23T11:57:48;3.85;;;2.20;;
47922;SDS011;33688;44.354;9.228;2024-02-23T12:00:14;4.47;;;2.40;;
47922;SDS011;33688;44.354;9.228;2024-02-23T12:02:40;4.68;;;2.90;;
47922;SDS011;33688;44.354;9.228;2024-02-23T12:05:08;4.40;;;2.55;;
47922;SDS011;33688;44.354;9.228;2024-02-23T12:07:34;5.07;;;2.67;;
47922;SDS011;33688;44.354;9.228;2024-02-23T12:10:01;4.32;;;2.40;;
47922;SDS011;33688;44.354;9.228;2024-02-23T12:12:30;2.95;;;2.05;;
47922;SDS011;33688;44.354;9.228;2024-02-23T12:14:58;5.22;;;2.42;;
47922;SDS011;33688;44.354;9.228;2024-02-23T12:17:24;4.65;;;2.33;;
47922;SDS011;33688;44.354;9.228;2024-02-23T12:20:01;5.07;;;2.10;;
47922;SDS011;33688;44.354;9.228;2024-02-23T12:22:28;5.22;;;2.30;;
47922;SDS011;33688;44.354;9.228;2024-02-23T12:25:04;6.30;;;2.40;;
47922;SDS011;33688;44.354;9.228;2024-02-23T12:27:32;5.90;;;2.67;;
47922;SDS011;33688;44.354;9.228;2024-02-23T12:29:58;3.92;;;2.33;;
47922;SDS011;33688;44.354;9.228;2024-02-23T12:32:25;10.48;;;2.92;;
47922;SDS011;33688;44.354;9.228;2024-02-23T12:34:54;2.72;;;2.30;;
47922;SDS011;33688;44.354;9.228;2024-02-23T12:37:21;4.45;;;2.30;;
47922;SDS011;33688;44.354;9.228;2024-02-23T12:39:50;4.82;;;2.53;;
47922;SDS011;33688;44.354;9.228;2024-02-23T12:42:17;3.55;;;2.03;;
47922;SDS011;33688;44.354;9.228;2024-02-23T12:44:45;4.40;;;2.08;;
47922;SDS011;33688;44.354;9.228;2024-02-23T12:47:11;4.63;;;2.22;;
47922;SDS011;33688;44.354;9.228;2024-02-23T12:49:37;2.88;;;2.08;;
47922;SDS011;33688;44.354;9.228;2024-02-23T12:52:03;5.10;;;2.22;;
47922;SDS011;33688;44.354;9.228;2024-02-23T12:54:30;6.10;;;2.00;;
47922;SDS011;33688;44.354;9.228;2024-02-23T12:56:55;3.70;;;1.85;;
47922;SDS011;33688;44.354;9.228;2024-02-23T12:59:22;3.75;;;2.25;;
47922;SDS011;33688;44.354;9.228;2024-02-23T13:01:48;4.63;;;2.25;;
47922;SDS011;33688;44.354;9.228;2024-02-23T13:04:13;3.75;;;2.53;;
47922;SDS011;33688;44.354;9.228;2024-02-23T13:06:39;4.68;;;2.40;;
47922;SDS011;33688;44.354;9.228;2024-02-23T13:09:05;3.50;;;2.38;;
47922;SDS011;33688;44.354;9.228;2024-02-23T13:11:34;2.97;;;2.17;;
47922;SDS011;33688;44.354;9.228;2024-02-23T13:14:03;4.30;;;2.15;;
47922;SDS011;33688;44.354;9.228;2024-02-23T13:16:28;4.45;;;1.90;;
47922;SDS011;33688;44.354;9.228;2024-02-23T13:18:56;3.75;;;2.00;;
47922;SDS011;33688;44.354;9.228;2024-02-23T13:21:22;5.13;;;2.33;;
47922;SDS011;33688;44.354;9.228;2024-02-23T13:23:49;4.13;;;2.10;;
47922;SDS011;33688;44.354;9.228;2024-02-23T13:26:15;2.90;;;1.92;;
47922;SDS011;33688;44.354;9.228;2024-02-23T13:28:41;2.95;;;1.65;;
47922;SDS011;33688;44.354;9.228;2024-02-23T13:31:09;5.80;;;2.67;;
47922;SDS011;33688;44.354;9.228;2024-02-23T13:33:35;2.47;;;1.88;;
47922;SDS011;33688;44.354;9.228;2024-02-23T13:36:01;4.47;;;2.42;;
47922;SDS011;33688;44.354;9.228;2024-02-23T13:38:27;4.25;;;2.22;;
47922;SDS011;33688;44.354;9.228;2024-02-23T13:40:53;2.38;;;1.70;;
47922;SDS011;33688;44.354;9.228;2024-02-23T13:43:19;4.93;;;2.00;;
47922;SDS011;33688;44.354;9.228;2024-02-23T13:45:51;6.13;;;2.35;;
47922;SDS011;33688;44.354;9.228;2024-02-23T13:48:18;2.47;;;1.65;;
47922;SDS011;33688;44.354;9.228;2024-02-23T13:50:46;2.53;;;1.90;;
47922;SDS011;33688;44.354;9.228;2024-02-23T13:53:13;2.97;;;1.48;;
47922;SDS011;33688;44.354;9.228;2024-02-23T13:55:40;4.00;;;2.15;;
47922;SDS011;33688;44.354;9.228;2024-02-23T13:58:10;10.38;;;1.83;;
47922;SDS011;33688;44.354;9.228;2024-02-23T14:00:39;3.55;;;1.80;;
47922;SDS011;33688;44.354;9.228;2024-02-23T14:03:06;7.13;;;1.80;;
47922;SDS011;33688;44.354;9.228;2024-02-23T14:05:32;2.58;;;1.60;;
47922;SDS011;33688;44.354;9.228;2024-02-23T14:07:58;2.90;;;1.85;;
47922;SDS011;33688;44.354;9.228;2024-02-23T14:10:24;3.75;;;1.60;;
47922;SDS011;33688;44.354;9.228;2024-02-23T14:12:51;3.88;;;1.90;;
47922;SDS011;33688;44.354;9.228;2024-02-23T14:15:17;4.85;;;2.10;;
47922;SDS011;33688;44.354;9.228;2024-02-23T14:17:43;2.35;;;1.50;;
47922;SDS011;33688;44.354;9.228;2024-02-23T14:20:09;3.58;;;1.80;;
47922;SDS011;33688;44.354;9.228;2024-02-23T14:22:35;2.90;;;1.60;;
47922;SDS011;33688;44.354;9.228;2024-02-23T14:25:01;5.45;;;1.67;;
47922;SDS011;33688;44.354;9.228;2024-02-23T14:27:27;6.38;;;1.33;;
47922;SDS011;33688;44.354;9.228;2024-02-23T14:29:53;2.03;;;1.60;;
47922;SDS011;33688;44.354;9.228;2024-02-23T14:32:20;4.22;;;1.95;;
47922;SDS011;33688;44.354;9.228;2024-02-23T14:34:47;5.82;;;1.52;;
47922;SDS011;33688;44.354;9.228;2024-02-23T14:37:13;3.03;;;1.30;;
47922;SDS011;33688;44.354;9.228;2024-02-23T14:39:39;4.13;;;1.73;;
47922;SDS011;33688;44.354;9.228;2024-02-23T14:42:05;2.78;;;1.70;;
47922;SDS011;33688;44.354;9.228;2024-02-23T14:44:35;2.72;;;1.35;;
47922;SDS011;33688;44.354;9.228;2024-02-23T14:47:02;2.17;;;1.50;;
47922;SDS011;33688;44.354;9.228;2024-02-23T14:49:30;2.33;;;1.58;;
47922;SDS011;33688;44.354;9.228;2024-02-23T14:51:57;2.20;;;1.40;;
47922;SDS011;33688;44.354;9.228;2024-02-23T14:54:23;3.80;;;1.70;;
47922;SDS011;33688;44.354;9.228;2024-02-23T14:56:48;1.73;;;1.30;;
47922;SDS011;33688;44.354;9.228;2024-02-23T14:59:14;2.33;;;1.30;;
47922;SDS011;33688;44.354;9.228;2024-02-23T15:01:40;2.92;;;1.83;;
47922;SDS011;33688;44.354;9.228;2024-02-23T15:04:07;2.15;;;1.17;;
47922;SDS011;33688;44.354;9.228;2024-02-23T15:06:33;2.63;;;1.20;;
47922;SDS011;33688;44.354;9.228;2024-02-23T15:09:00;5.30;;;1.40;;
47922;SDS011;33688;44.354;9.228;2024-02-23T15:11:26;3.45;;;1.52;;
47922;SDS011;33688;44.354;9.228;2024-02-23T15:13:52;5.50;;;1.30;;
47922;SDS011;33688;44.354;9.228;2024-02-23T15:16:23;2.35;;;1.10;;